sensor_id;sensor_type;location;lat;lon;timestamp;pressure;altitude;pressure_sealevel;temperature;humidity
37486;BME280;23341;50.296;18.960;2023-07-31T00:01:43;52001.69;;;-144.43;100.00
37486;BME280;23341;50.296;18.960;2023-07-31T00:06:47;52025.69;;;-144.43;100.00
37486;BME280;23341;50.296;18.960;2023-07-31T00:11:52;52025.69;;;-144.43;100.00
37486;BME280;23341;50.296;18.960;2023-07-31T00:16:56;52077.69;;;-144.43;100.00
37486;BME280;23341;50.296;18.960;2023-07-31T00:22:00;52045.69;;;-144.43;100.00
37486;BME280;23341;50.296;18.960;2023-07-31T00:27:05;52085.69;;;-144.43;100.00
37486;BME280;23341;50.296;18.960;2023-07-31T00:32:09;52081.69;;;-144.43;100.00
37486;BME280;23341;50.296;18.960;2023-07-31T00:37:13;52047.69;;;-144.43;100.00
37486;BME280;23341;50.296;18.960;2023-07-31T00:42:19;52011.69;;;-144.43;100.00
37486;BME280;23341;50.296;18.960;2023-07-31T00:47:23;51997.69;;;-144.43;100.00
37486;BME280;23341;50.296;18.960;2023-07-31T00:52:27;51945.69;;;-144.43;100.00
37486;BME280;23341;50.296;18.960;2023-07-31T00:57:33;51965.69;;;-144.43;100.00
37486;BME280;23341;50.296;18.960;2023-07-31T01:02:38;51887.72;;;-144.43;100.00
37486;BME280;23341;50.296;18.960;2023-07-31T01:07:53;51895.72;;;-144.43;100.00
37486;BME280;23341;50.296;18.960;2023-07-31T01:13:01;51889.72;;;-144.43;100.00
37486;BME280;23341;50.296;18.960;2023-07-31T01:18:07;51893.72;;;-144.43;100.00
37486;BME280;23341;50.296;18.960;2023-07-31T01:23:36;51903.72;;;-144.43;100.00
37486;BME280;23341;50.296;18.960;2023-07-31T01:28:56;51909.72;;;-144.43;100.00
37486;BME280;23341;50.296;18.960;2023-07-31T01:34:03;51897.72;;;-144.43;100.00
37486;BME280;23341;50.296;18.960;2023-07-31T01:39:07;51889.72;;;-144.43;100.00
37486;BME280;23341;50.296;18.960;2023-07-31T01:44:12;51879.72;;;-144.43;100.00
37486;BME280;23341;50.296;18.960;2023-07-31T01:49:16;51877.72;;;-144.43;100.00
37486;BME280;23341;50.296;18.960;2023-07-31T01:54:20;51865.72;;;-144.43;100.00
37486;BME280;23341;50.296;18.960;2023-07-31T01:59:25;51849.72;;;-144.43;100.00
37486;BME280;23341;50.296;18.960;2023-07-31T02:04:29;51871.72;;;-144.43;100.00
37486;BME280;23341;50.296;18.960;2023-07-31T02:09:33;51891.72;;;-144.43;100.00
37486;BME280;23341;50.296;18.960;2023-07-31T02:14:38;51891.72;;;-144.43;100.00
37486;BME280;23341;50.296;18.960;2023-07-31T02:19:41;51959.72;;;-144.43;100.00
37486;BME280;23341;50.296;18.960;2023-07-31T02:24:45;51919.69;;;-144.43;100.00
37486;BME280;23341;50.296;18.960;2023-07-31T02:29:50;51961.69;;;-144.43;100.00
37486;BME280;23341;50.296;18.960;2023-07-31T02:34:54;52009.69;;;-144.43;100.00
37486;BME280;23341;50.296;18.960;2023-07-31T02:39:58;52009.69;;;-144.43;100.00
37486;BME280;23341;50.296;18.960;2023-07-31T02:45:06;51953.69;;;-144.43;100.00
37486;BME280;23341;50.296;18.960;2023-07-31T02:50:10;51969.69;;;-144.43;100.00
37486;BME280;23341;50.296;18.960;2023-07-31T02:55:14;52019.69;;;-144.43;100.00
37486;BME280;23341;50.296;18.960;2023-07-31T03:00:19;51957.69;;;-144.43;100.00
37486;BME280;23341;50.296;18.960;2023-07-31T03:10:48;51897.72;;;-144.43;100.00
37486;BME280;23341;50.296;18.960;2023-07-31T03:15:55;51893.72;;;-144.43;100.00
37486;BME280;23341;50.296;18.960;2023-07-31T03:20:59;51917.72;;;-144.43;100.00
37486;BME280;23341;50.296;18.960;2023-07-31T03:26:08;51953.69;;;-144.43;100.00
37486;BME280;23341;50.296;18.960;2023-07-31T03:31:13;51937.69;;;-144.43;100.00
37486;BME280;23341;50.296;18.960;2023-07-31T03:36:17;51929.72;;;-144.43;100.00
37486;BME280;23341;50.296;18.960;2023-07-31T03:41:21;51953.69;;;-144.43;100.00
37486;BME280;23341;50.296;18.960;2023-07-31T03:46:26;51959.72;;;-144.43;100.00
37486;BME280;23341;50.296;18.960;2023-07-31T03:51:30;51975.69;;;-144.43;100.00
37486;BME280;23341;50.296;18.960;2023-07-31T03:56:34;51973.69;;;-144.43;100.00
37486;BME280;23341;50.296;18.960;2023-07-31T04:01:39;51937.69;;;-144.43;100.00
37486;BME280;23341;50.296;18.960;2023-07-31T04:06:43;51989.69;;;-144.43;100.00
37486;BME280;23341;50.296;18.960;2023-07-31T04:11:46;51953.69;;;-144.43;100.00
37486;BME280;23341;50.296;18.960;2023-07-31T04:16:52;51999.69;;;-144.43;100.00
37486;BME280;23341;50.296;18.960;2023-07-31T04:21:56;51905.72;;;-144.43;100.00
37486;BME280;23341;50.296;18.960;2023-07-31T04:27:00;51997.69;;;-144.43;100.00
37486;BME280;23341;50.296;18.960;2023-07-31T04:32:06;52005.69;;;-144.43;100.00
37486;BME280;23341;50.296;18.960;2023-07-31T04:37:10;51945.69;;;-144.43;100.00
37486;BME280;23341;50.296;18.960;2023-07-31T04:42:14;51973.69;;;-144.43;100.00
37486;BME280;23341;50.296;18.960;2023-07-31T04:47:19;51909.72;;;-144.43;100.00
37486;BME280;23341;50.296;18.960;2023-07-31T04:52:23;51929.72;;;-144.43;100.00
37486;BME280;23341;50.296;18.960;2023-07-31T04:57:27;51933.69;;;-144.43;100.00
37486;BME280;23341;50.296;18.960;2023-07-31T05:02:32;51883.72;;;-144.43;100.00
37486;BME280;23341;50.296;18.960;2023-07-31T05:07:36;51879.72;;;-144.43;100.00
37486;BME280;23341;50.296;18.960;2023-07-31T05:12:40;51999.69;;;-144.43;100.00
37486;BME280;23341;50.296;18.960;2023-07-31T05:17:46;51999.69;;;-144.43;100.00
37486;BME280;23341;50.296;18.960;2023-07-31T05:22:50;52009.69;;;-144.43;100.00
37486;BME280;23341;50.296;18.960;2023-07-31T05:27:54;51997.69;;;-144.43;100.00
37486;BME280;23341;50.296;18.960;2023-07-31T05:33:00;52067.69;;;-144.43;100.00
37486;BME280;23341;50.296;18.960;2023-07-31T05:38:04;52113.69;;;-144.43;100.00
37486;BME280;23341;50.296;18.960;2023-07-31T05:43:08;52107.69;;;-144.43;100.00
37486;BME280;23341;50.296;18.960;2023-07-31T05:48:13;52057.69;;;-144.43;100.00
37486;BME280;23341;50.296;18.960;2023-07-31T05:53:18;52055.69;;;-144.43;100.00
37486;BME280;23341;50.296;18.960;2023-07-31T05:58:21;52177.69;;;-144.43;98.63
37486;BME280;23341;50.296;18.960;2023-07-31T06:03:27;52311.72;;;-144.43;97.48
37486;BME280;23341;50.296;18.960;2023-07-31T06:08:31;52465.72;;;-144.43;93.20
37486;BME280;23341;50.296;18.960;2023-07-31T06:13:35;52709.75;;;-144.43;87.58
37486;BME280;23341;50.296;18.960;2023-07-31T06:18:40;53007.81;;;-144.43;82.34
37486;BME280;23341;50.296;18.960;2023-07-31T06:23:44;53037.81;;;-144.43;71.66
37486;BME280;23341;50.296;18.960;2023-07-31T06:28:48;52767.75;;;-144.43;73.20
37486;BME280;23341;50.296;18.960;2023-07-31T06:33:54;53790.09;;;-144.43;62.21
37486;BME280;23341;50.296;18.960;2023-07-31T06:38:58;53413.94;;;-144.43;62.46
37486;BME280;23341;50.296;18.960;2023-07-31T06:44:01;53770.06;;;-144.43;59.31
37486;BME280;23341;50.296;18.960;2023-07-31T06:49:07;54158.25;;;-144.43;59.26
37486;BME280;23341;50.296;18.960;2023-07-31T06:54:11;55022.81;;;-144.43;54.98
37486;BME280;23341;50.296;18.960;2023-07-31T06:59:14;55875.53;;;-144.43;55.41
37486;BME280;23341;50.296;18.960;2023-07-31T07:04:20;55176.94;;;-144.43;64.52
37486;BME280;23341;50.296;18.960;2023-07-31T07:09:24;54394.38;;;-144.43;70.22
37486;BME280;23341;50.296;18.960;2023-07-31T07:14:27;53778.06;;;-144.43;78.13
37486;BME280;23341;50.296;18.960;2023-07-31T07:19:33;54618.53;;;-144.43;73.17
37486;BME280;23341;50.296;18.960;2023-07-31T07:24:37;54776.63;;;-144.43;73.10
37486;BME280;23341;50.296;18.960;2023-07-31T07:29:41;55110.88;;;-144.43;72.57
37486;BME280;23341;50.296;18.960;2023-07-31T07:34:47;55317.03;;;-144.43;71.64
37486;BME280;23341;50.296;18.960;2023-07-31T07:39:51;55343.06;;;-144.43;72.27
37486;BME280;23341;50.296;18.960;2023-07-31T07:44:55;55226.97;;;-144.43;73.26
37486;BME280;23341;50.296;18.960;2023-07-31T07:50:05;55269.00;;;-144.43;73.01
37486;BME280;23341;50.296;18.960;2023-07-31T07:55:14;54618.53;;;-144.43;74.42
37486;BME280;23341;50.296;18.960;2023-07-31T08:00:22;54902.72;;;-144.43;75.04
37486;BME280;23341;50.296;18.960;2023-07-31T08:05:28;54176.25;;;-144.43;79.47
37486;BME280;23341;50.296;18.960;2023-07-31T08:10:35;54474.44;;;-144.43;77.45
37486;BME280;23341;50.296;18.960;2023-07-31T08:15:42;53980.16;;;-144.43;79.68
37486;BME280;23341;50.296;18.960;2023-07-31T08:20:48;53840.09;;;-144.43;79.65
37486;BME280;23341;50.296;18.960;2023-07-31T08:25:53;53602.00;;;-144.43;83.42
37486;BME280;23341;50.296;18.960;2023-07-31T08:30:57;52961.81;;;-144.43;86.05
37486;BME280;23341;50.296;18.960;2023-07-31T08:36:03;54854.69;;;-144.43;75.76
37486;BME280;23341;50.296;18.960;2023-07-31T08:41:07;55228.97;;;-144.43;74.35
37486;BME280;23341;50.296;18.960;2023-07-31T08:46:11;54866.69;;;-144.43;74.12
37486;BME280;23341;50.296;18.960;2023-07-31T08:51:18;55573.25;;;-144.43;71.60
37486;BME280;23341;50.296;18.960;2023-07-31T08:56:23;54936.75;;;-144.43;72.36
37486;BME280;23341;50.296;18.960;2023-07-31T09:01:29;55196.94;;;-144.43;71.14
37486;BME280;23341;50.296;18.960;2023-07-31T09:06:35;55309.03;;;-144.43;71.84
37486;BME280;23341;50.296;18.960;2023-07-31T09:11:39;54562.50;;;-144.43;73.92
37486;BME280;23341;50.296;18.960;2023-07-31T09:16:54;53161.84;;;-144.43;80.49
37486;BME280;23341;50.296;18.960;2023-07-31T09:21:59;53469.94;;;-144.43;79.13
37486;BME280;23341;50.296;18.960;2023-07-31T09:27:05;53065.84;;;-144.43;79.87
37486;BME280;23341;50.296;18.960;2023-07-31T09:32:15;53173.84;;;-144.43;79.81
37486;BME280;23341;50.296;18.960;2023-07-31T09:37:21;53624.00;;;-144.43;78.39
37486;BME280;23341;50.296;18.960;2023-07-31T09:42:25;52955.81;;;-144.43;80.46
37486;BME280;23341;50.296;18.960;2023-07-31T09:47:30;52387.72;;;-144.43;85.67
37486;BME280;23341;50.296;18.960;2023-07-31T09:52:38;52701.75;;;-144.43;84.89
37486;BME280;23341;50.296;18.960;2023-07-31T09:57:46;52953.81;;;-144.43;79.03
37486;BME280;23341;50.296;18.960;2023-07-31T10:02:50;52741.75;;;-144.43;80.68
37486;BME280;23341;50.296;18.960;2023-07-31T10:07:57;52847.78;;;-144.43;79.78
37486;BME280;23341;50.296;18.960;2023-07-31T10:13:01;52705.75;;;-144.43;79.72
37486;BME280;23341;50.296;18.960;2023-07-31T10:18:06;52751.75;;;-144.43;80.49
37486;BME280;23341;50.296;18.960;2023-07-31T10:23:12;52575.75;;;-144.43;80.47
37486;BME280;23341;50.296;18.960;2023-07-31T10:28:16;52327.72;;;-144.43;81.83
37486;BME280;23341;50.296;18.960;2023-07-31T10:33:20;52607.75;;;-144.43;81.07
37486;BME280;23341;50.296;18.960;2023-07-31T10:38:26;52625.75;;;-144.43;80.01
37486;BME280;23341;50.296;18.960;2023-07-31T10:43:32;52885.78;;;-144.43;78.57
37486;BME280;23341;50.296;18.960;2023-07-31T10:48:38;52773.75;;;-144.43;79.02
37486;BME280;23341;50.296;18.960;2023-07-31T10:53:45;52855.78;;;-144.43;78.56
37486;BME280;23341;50.296;18.960;2023-07-31T10:59:00;52479.72;;;-144.43;80.29
37486;BME280;23341;50.296;18.960;2023-07-31T11:04:10;52637.75;;;-144.43;78.59
37486;BME280;23341;50.296;18.960;2023-07-31T11:09:16;52681.75;;;-144.43;79.65
37486;BME280;23341;50.296;18.960;2023-07-31T11:14:20;52629.75;;;-144.43;79.53
37486;BME280;23341;50.296;18.960;2023-07-31T11:19:24;53017.81;;;-144.43;77.34
37486;BME280;23341;50.296;18.960;2023-07-31T11:24:30;52581.75;;;-144.43;79.22
37486;BME280;23341;50.296;18.960;2023-07-31T11:29:33;53033.81;;;-144.43;77.31
37486;BME280;23341;50.296;18.960;2023-07-31T11:34:51;52551.72;;;-144.43;79.84
37486;BME280;23341;50.296;18.960;2023-07-31T11:40:00;52841.78;;;-144.43;78.12
37486;BME280;23341;50.296;18.960;2023-07-31T11:45:04;52681.75;;;-144.43;78.51
37486;BME280;23341;50.296;18.960;2023-07-31T11:50:10;52827.78;;;-144.43;78.03
37486;BME280;23341;50.296;18.960;2023-07-31T11:55:17;52717.75;;;-144.43;78.44
37486;BME280;23341;50.296;18.960;2023-07-31T12:00:21;52673.75;;;-144.43;78.37
37486;BME280;23341;50.296;18.960;2023-07-31T12:05:25;52713.75;;;-144.43;78.22
37486;BME280;23341;50.296;18.960;2023-07-31T12:10:32;52505.72;;;-144.43;79.99
37486;BME280;23341;50.296;18.960;2023-07-31T12:15:41;52531.72;;;-144.43;80.18
37486;BME280;23341;50.296;18.960;2023-07-31T12:20:46;52587.75;;;-144.43;79.70
37486;BME280;23341;50.296;18.960;2023-07-31T12:26:01;52541.72;;;-144.43;80.60
37486;BME280;23341;50.296;18.960;2023-07-31T12:31:06;52597.75;;;-144.43;80.79
37486;BME280;23341;50.296;18.960;2023-07-31T12:36:12;52431.72;;;-144.43;81.27
37486;BME280;23341;50.296;18.960;2023-07-31T12:41:18;52633.75;;;-144.43;80.95
37486;BME280;23341;50.296;18.960;2023-07-31T12:46:22;53245.88;;;-144.43;77.41
37486;BME280;23341;50.296;18.960;2023-07-31T12:51:26;52569.72;;;-144.43;79.70
37486;BME280;23341;50.296;18.960;2023-07-31T12:56:31;52597.75;;;-144.43;80.43
37486;BME280;23341;50.296;18.960;2023-07-31T13:01:35;52949.81;;;-144.43;78.44
37486;BME280;23341;50.296;18.960;2023-07-31T13:06:42;53113.84;;;-144.43;77.77
37486;BME280;23341;50.296;18.960;2023-07-31T13:11:47;52881.78;;;-144.43;77.76
37486;BME280;23341;50.296;18.960;2023-07-31T13:16:52;53173.84;;;-144.43;77.40
37486;BME280;23341;50.296;18.960;2023-07-31T13:21:56;53225.88;;;-144.43;76.41
37486;BME280;23341;50.296;18.960;2023-07-31T13:27:01;53169.84;;;-144.43;76.77
37486;BME280;23341;50.296;18.960;2023-07-31T13:32:05;52869.78;;;-144.43;76.88
37486;BME280;23341;50.296;18.960;2023-07-31T13:37:09;53269.88;;;-144.43;75.86
37486;BME280;23341;50.296;18.960;2023-07-31T13:42:14;53634.00;;;-144.43;74.10
37486;BME280;23341;50.296;18.960;2023-07-31T13:47:18;53531.97;;;-144.43;74.11
37486;BME280;23341;50.296;18.960;2023-07-31T13:52:22;53073.84;;;-144.43;75.55
37486;BME280;23341;50.296;18.960;2023-07-31T13:57:27;52535.72;;;-144.43;78.42
37486;BME280;23341;50.296;18.960;2023-07-31T14:02:31;52801.78;;;-144.43;77.23
37486;BME280;23341;50.296;18.960;2023-07-31T14:07:35;52511.72;;;-144.43;78.62
37486;BME280;23341;50.296;18.960;2023-07-31T14:12:41;52605.75;;;-144.43;79.25
37486;BME280;23341;50.296;18.960;2023-07-31T14:17:45;52527.72;;;-144.43;80.12
37486;BME280;23341;50.296;18.960;2023-07-31T14:22:49;52399.72;;;-144.43;80.63
37486;BME280;23341;50.296;18.960;2023-07-31T14:27:54;52103.69;;;-144.43;82.27
37486;BME280;23341;50.296;18.960;2023-07-31T14:32:58;52209.72;;;-144.43;82.96
37486;BME280;23341;50.296;18.960;2023-07-31T14:38:03;52189.72;;;-144.43;83.39
37486;BME280;23341;50.296;18.960;2023-07-31T14:43:10;52213.72;;;-144.43;82.03
37486;BME280;23341;50.296;18.960;2023-07-31T14:48:14;52171.69;;;-144.43;82.44
37486;BME280;23341;50.296;18.960;2023-07-31T14:53:18;52143.69;;;-144.43;83.05
37486;BME280;23341;50.296;18.960;2023-07-31T14:58:24;52211.72;;;-144.43;82.72
37486;BME280;23341;50.296;18.960;2023-07-31T15:03:28;52059.69;;;-144.43;83.01
37486;BME280;23341;50.296;18.960;2023-07-31T15:08:35;52141.69;;;-144.43;82.98
37486;BME280;23341;50.296;18.960;2023-07-31T15:13:43;52247.72;;;-144.43;82.32
37486;BME280;23341;50.296;18.960;2023-07-31T15:18:47;52181.69;;;-144.43;82.60
37486;BME280;23341;50.296;18.960;2023-07-31T15:23:51;52929.78;;;-144.43;78.55
37486;BME280;23341;50.296;18.960;2023-07-31T15:29:01;53191.88;;;-144.43;77.19
37486;BME280;23341;50.296;18.960;2023-07-31T15:34:08;53165.84;;;-144.43;77.18
37486;BME280;23341;50.296;18.960;2023-07-31T15:39:12;52549.72;;;-144.43;80.80
37486;BME280;23341;50.296;18.960;2023-07-31T15:44:17;52747.75;;;-144.43;80.42
37486;BME280;23341;50.296;18.960;2023-07-31T15:49:22;52511.72;;;-144.43;81.56
37486;BME280;23341;50.296;18.960;2023-07-31T15:54:25;52341.72;;;-144.43;83.25
37486;BME280;23341;50.296;18.960;2023-07-31T15:59:31;52263.72;;;-144.43;84.71
37486;BME280;23341;50.296;18.960;2023-07-31T16:04:35;52275.72;;;-144.43;84.94
37486;BME280;23341;50.296;18.960;2023-07-31T16:09:38;52105.69;;;-144.43;86.30
37486;BME280;23341;50.296;18.960;2023-07-31T16:14:44;52199.72;;;-144.43;86.31
37486;BME280;23341;50.296;18.960;2023-07-31T16:19:48;52283.72;;;-144.43;86.00
37486;BME280;23341;50.296;18.960;2023-07-31T16:24:51;52239.72;;;-144.43;85.85
37486;BME280;23341;50.296;18.960;2023-07-31T16:29:57;52295.72;;;-144.43;85.95
37486;BME280;23341;50.296;18.960;2023-07-31T16:35:03;52141.69;;;-144.43;86.30
37486;BME280;23341;50.296;18.960;2023-07-31T16:40:08;52197.72;;;-144.43;86.35
37486;BME280;23341;50.296;18.960;2023-07-31T16:45:13;52087.69;;;-144.43;85.71
37486;BME280;23341;50.296;18.960;2023-07-31T16:50:17;52113.69;;;-144.43;85.40
37486;BME280;23341;50.296;18.960;2023-07-31T16:55:23;52121.69;;;-144.43;85.29
37486;BME280;23341;50.296;18.960;2023-07-31T17:00:33;52065.69;;;-144.43;86.17
37486;BME280;23341;50.296;18.960;2023-07-31T17:05:37;51909.72;;;-144.43;87.38
37486;BME280;23341;50.296;18.960;2023-07-31T17:10:41;51917.72;;;-144.43;87.89
37486;BME280;23341;50.296;18.960;2023-07-31T17:15:46;51865.72;;;-144.43;88.39
37486;BME280;23341;50.296;18.960;2023-07-31T17:20:50;51897.72;;;-144.43;89.06
37486;BME280;23341;50.296;18.960;2023-07-31T17:25:54;51853.72;;;-144.43;89.18
37486;BME280;23341;50.296;18.960;2023-07-31T17:30:59;51813.72;;;-144.43;90.07
37486;BME280;23341;50.296;18.960;2023-07-31T17:36:04;51849.72;;;-144.43;90.36
37486;BME280;23341;50.296;18.960;2023-07-31T17:41:10;51869.72;;;-144.43;90.48
37486;BME280;23341;50.296;18.960;2023-07-31T17:46:15;51805.72;;;-144.43;90.65
37486;BME280;23341;50.296;18.960;2023-07-31T17:51:19;51715.72;;;-144.43;91.42
37486;BME280;23341;50.296;18.960;2023-07-31T17:56:22;51773.72;;;-144.43;91.47
37486;BME280;23341;50.296;18.960;2023-07-31T18:01:28;51775.72;;;-144.43;91.80
37486;BME280;23341;50.296;18.960;2023-07-31T18:06:32;51731.72;;;-144.43;92.34
37486;BME280;23341;50.296;18.960;2023-07-31T18:11:37;51689.72;;;-144.43;92.96
37486;BME280;23341;50.296;18.960;2023-07-31T18:16:42;51689.72;;;-144.43;92.86
37486;BME280;23341;50.296;18.960;2023-07-31T18:21:46;51689.72;;;-144.43;93.38
37486;BME280;23341;50.296;18.960;2023-07-31T18:26:50;51641.72;;;-144.43;94.06
37486;BME280;23341;50.296;18.960;2023-07-31T18:31:56;51577.72;;;-144.43;94.75
37486;BME280;23341;50.296;18.960;2023-07-31T18:37:00;51563.72;;;-144.43;95.32
37486;BME280;23341;50.296;18.960;2023-07-31T18:42:06;51553.72;;;-144.43;95.67
37486;BME280;23341;50.296;18.960;2023-07-31T18:47:12;51561.72;;;-144.43;95.87
37486;BME280;23341;50.296;18.960;2023-07-31T18:52:17;51505.75;;;-144.43;96.99
37486;BME280;23341;50.296;18.960;2023-07-31T18:57:21;51543.75;;;-144.43;96.95
37486;BME280;23341;50.296;18.960;2023-07-31T19:02:28;51509.75;;;-144.43;97.34
37486;BME280;23341;50.296;18.960;2023-07-31T19:07:32;51485.75;;;-144.43;97.67
37486;BME280;23341;50.296;18.960;2023-07-31T19:12:36;51485.75;;;-144.43;97.09
37486;BME280;23341;50.296;18.960;2023-07-31T19:17:41;51417.75;;;-144.43;95.30
37486;BME280;23341;50.296;18.960;2023-07-31T19:22:56;51369.75;;;-144.43;90.75
37486;BME280;23341;50.296;18.960;2023-07-31T19:28:03;51355.75;;;-144.43;85.55
37486;BME280;23341;50.296;18.960;2023-07-31T19:33:09;51359.75;;;-144.43;80.46
37486;BME280;23341;50.296;18.960;2023-07-31T19:38:12;51323.78;;;-144.43;77.30
37486;BME280;23341;50.296;18.960;2023-07-31T19:43:16;51221.78;;;-144.43;76.75
37486;BME280;23341;50.296;18.960;2023-07-31T19:48:22;51217.78;;;-144.43;75.56
37486;BME280;23341;50.296;18.960;2023-07-31T19:53:28;51235.78;;;-144.43;74.97
37486;BME280;23341;50.296;18.960;2023-07-31T19:58:31;51221.78;;;-144.43;74.13
37486;BME280;23341;50.296;18.960;2023-07-31T20:03:37;51151.81;;;-144.43;75.05
37486;BME280;23341;50.296;18.960;2023-07-31T20:08:41;51243.78;;;-144.43;76.62
37486;BME280;23341;50.296;18.960;2023-07-31T20:13:44;51221.78;;;-144.43;75.57
37486;BME280;23341;50.296;18.960;2023-07-31T20:18:50;51205.78;;;-144.43;75.49
37486;BME280;23341;50.296;18.960;2023-07-31T20:23:54;51199.78;;;-144.43;75.88
37486;BME280;23341;50.296;18.960;2023-07-31T20:28:57;51187.81;;;-144.43;76.01
37486;BME280;23341;50.296;18.960;2023-07-31T20:34:03;51189.81;;;-144.43;76.93
37486;BME280;23341;50.296;18.960;2023-07-31T20:39:09;51187.81;;;-144.43;76.71
37486;BME280;23341;50.296;18.960;2023-07-31T20:44:14;51115.81;;;-144.43;75.45
37486;BME280;23341;50.296;18.960;2023-07-31T20:49:19;51133.81;;;-144.43;76.98
37486;BME280;23341;50.296;18.960;2023-07-31T20:54:23;51133.81;;;-144.43;77.49
37486;BME280;23341;50.296;18.960;2023-07-31T20:59:27;51105.81;;;-144.43;79.45
37486;BME280;23341;50.296;18.960;2023-07-31T21:04:32;51069.81;;;-144.43;79.42
37486;BME280;23341;50.296;18.960;2023-07-31T21:09:39;51061.81;;;-144.43;80.12
37486;BME280;23341;50.296;18.960;2023-07-31T21:14:43;51137.81;;;-144.43;80.30
37486;BME280;23341;50.296;18.960;2023-07-31T21:19:50;51075.81;;;-144.43;79.63
37486;BME280;23341;50.296;18.960;2023-07-31T21:24:54;51093.81;;;-144.43;80.79
37486;BME280;23341;50.296;18.960;2023-07-31T21:29:58;51025.84;;;-144.43;82.29
37486;BME280;23341;50.296;18.960;2023-07-31T21:35:04;51025.84;;;-144.43;82.27
37486;BME280;23341;50.296;18.960;2023-07-31T21:40:10;51037.84;;;-144.43;81.77
37486;BME280;23341;50.296;18.960;2023-07-31T21:45:14;51041.84;;;-144.43;83.13
37486;BME280;23341;50.296;18.960;2023-07-31T21:50:19;51009.84;;;-144.43;83.27
37486;BME280;23341;50.296;18.960;2023-07-31T21:55:23;51101.81;;;-144.43;82.25
37486;BME280;23341;50.296;18.960;2023-07-31T22:00:27;51073.81;;;-144.43;82.29
37486;BME280;23341;50.296;18.960;2023-07-31T22:05:35;51073.81;;;-144.43;83.05
37486;BME280;23341;50.296;18.960;2023-07-31T22:10:39;51121.81;;;-144.43;82.49
37486;BME280;23341;50.296;18.960;2023-07-31T22:15:49;51087.81;;;-144.43;82.13
37486;BME280;23341;50.296;18.960;2023-07-31T22:20:56;51077.81;;;-144.43;83.23
37486;BME280;23341;50.296;18.960;2023-07-31T22:26:15;51053.84;;;-144.43;83.86
37486;BME280;23341;50.296;18.960;2023-07-31T22:31:19;51065.81;;;-144.43;83.16
37486;BME280;23341;50.296;18.960;2023-07-31T22:36:24;51107.81;;;-144.43;82.79
37486;BME280;23341;50.296;18.960;2023-07-31T22:41:32;51109.81;;;-144.43;82.40
37486;BME280;23341;50.296;18.960;2023-07-31T22:46:38;51145.81;;;-144.43;81.22
37486;BME280;23341;50.296;18.960;2023-07-31T22:51:44;51107.81;;;-144.43;81.82
37486;BME280;23341;50.296;18.960;2023-07-31T22:56:47;51125.81;;;-144.43;82.44
37486;BME280;23341;50.296;18.960;2023-07-31T23:01:51;51151.81;;;-144.43;80.59
37486;BME280;23341;50.296;18.960;2023-07-31T23:06:56;51117.81;;;-144.43;81.44
37486;BME280;23341;50.296;18.960;2023-07-31T23:12:00;51105.81;;;-144.43;81.58
37486;BME280;23341;50.296;18.960;2023-07-31T23:17:04;51155.81;;;-144.43;81.84
37486;BME280;23341;50.296;18.960;2023-07-31T23:22:09;51119.81;;;-144.43;81.77
37486;BME280;23341;50.296;18.960;2023-07-31T23:27:14;51121.81;;;-144.43;81.23
37486;BME280;23341;50.296;18.960;2023-07-31T23:32:18;51109.81;;;-144.43;81.75
37486;BME280;23341;50.296;18.960;2023-07-31T23:37:23;51089.81;;;-144.43;81.57
37486;BME280;23341;50.296;18.960;2023-07-31T23:42:27;51101.81;;;-144.43;81.00
37486;BME280;23341;50.296;18.960;2023-07-31T23:47:33;51089.81;;;-144.43;82.01
37486;BME280;23341;50.296;18.960;2023-07-31T23:52:38;51053.84;;;-144.43;82.06
37486;BME280;23341;50.296;18.960;2023-07-31T23:57:43;51037.84;;;-144.43;81.73
